Time;durP1;ratioP1;P1;durP2;ratioP2;P2;SDS_P1;SDS_P2;PMS_P1;PMS_P2;Temp;Humidity;BMP_temperature;BMP_pressure;BME280_temperature;BME280_humidity;BME280_pressure;Samples;Min_cycle;Max_cycle;Signal;HPM_P1;HPM_P2
2023/09/30 00:00:36;;;;;;;1.02;0.93;;;;;;;;;;5002756;28;58587;-72
2023/09/30 00:03:01;;;;;;;1.23;0.82;;;;;;;;;;5003120;28;59705;-70
2023/09/30 00:05:26;;;;;;;1.07;0.60;;;;;;;;;;5000582;28;60050;-71
2023/09/30 00:07:52;;;;;;;1.45;1.02;;;;;;;;;;5004815;28;58408;-70
2023/09/30 00:10:17;;;;;;;1.17;0.90;;;;;;;;;;5001437;28;58531;-71
2023/09/30 00:12:43;;;;;;;0.95;0.60;;;;;;;;;;5003501;28;58456;-70
2023/09/30 00:15:08;;;;;;;1.23;0.70;;;;;;;;;;5003193;28;59250;-70
2023/09/30 00:17:33;;;;;;;1.27;0.87;;;;;;;;;;5000625;28;60673;-71
2023/09/30 00:19:59;;;;;;;1.48;0.90;;;;;;;;;;5002947;28;58347;-71
2023/09/30 00:22:24;;;;;;;1.30;0.88;;;;;;;;;;5002526;28;58966;-70
2023/09/30 00:24:49;;;;;;;2.13;1.07;;;;;;;;;;4999629;28;58494;-71
2023/09/30 00:27:14;;;;;;;1.50;0.77;;;;;;;;;;5000169;28;58704;-70
2023/09/30 00:29:39;;;;;;;0.98;0.82;;;;;;;;;;5000614;28;59060;-70
2023/09/30 00:32:05;;;;;;;1.60;0.80;;;;;;;;;;4999960;28;59255;-70
2023/09/30 00:34:34;;;;;;;0.57;0.50;;;;;;;;;;5004980;28;60510;-71
2023/09/30 00:36:59;;;;;;;1.33;0.82;;;;;;;;;;5000793;28;59029;-71
2023/09/30 00:39:26;;;;;;;1.27;0.68;;;;;;;;;;4998177;28;58481;-70
2023/09/30 00:41:52;;;;;;;2.30;1.02;;;;;;;;;;5000773;28;58590;-71
2023/09/30 00:44:17;;;;;;;0.93;0.70;;;;;;;;;;5004123;28;58461;-71
2023/09/30 00:46:42;;;;;;;1.25;0.90;;;;;;;;;;5006097;28;58540;-71
2023/09/30 00:49:10;;;;;;;1.08;0.95;;;;;;;;;;5004247;28;59138;-71
2023/09/30 00:51:35;;;;;;;1.25;1.15;;;;;;;;;;5003600;28;59755;-70
2023/09/30 00:54:01;;;;;;;1.13;1.03;;;;;;;;;;5005096;28;58576;-71
2023/09/30 00:56:27;;;;;;;2.65;0.98;;;;;;;;;;5003370;28;59104;-71
2023/09/30 00:58:53;;;;;;;1.42;1.00;;;;;;;;;;5004805;28;58549;-71
2023/09/30 01:01:19;;;;;;;1.35;0.75;;;;;;;;;;5003652;28;59270;-71
2023/09/30 01:03:45;;;;;;;1.20;0.73;;;;;;;;;;5004048;28;59137;-70
2023/09/30 01:06:10;;;;;;;1.75;0.60;;;;;;;;;;5004370;28;58381;-70
2023/09/30 01:08:36;;;;;;;0.95;0.65;;;;;;;;;;5002903;28;59395;-71
2023/09/30 01:11:01;;;;;;;1.50;1.00;;;;;;;;;;5002884;28;58883;-70
2023/09/30 01:13:34;;;;;;;0.97;0.80;;;;;;;;;;5003133;28;58435;-71
2023/09/30 01:16:03;;;;;;;1.27;0.90;;;;;;;;;;5003940;28;58476;-71
2023/09/30 01:18:28;;;;;;;1.40;0.82;;;;;;;;;;5005286;28;58421;-71
2023/09/30 01:20:53;;;;;;;0.88;0.75;;;;;;;;;;4999253;28;58498;-71
2023/09/30 01:23:19;;;;;;;1.42;1.00;;;;;;;;;;4995248;28;58457;-70
2023/09/30 01:25:44;;;;;;;1.17;0.80;;;;;;;;;;4997354;28;58542;-70
2023/09/30 01:28:10;;;;;;;1.27;0.75;;;;;;;;;;4995254;28;59710;-70
2023/09/30 01:30:35;;;;;;;1.10;0.70;;;;;;;;;;4996504;28;58955;-71
2023/09/30 01:33:00;;;;;;;0.90;0.90;;;;;;;;;;4999072;28;58449;-71
2023/09/30 01:35:25;;;;;;;0.90;0.80;;;;;;;;;;4998663;28;60016;-71
2023/09/30 01:37:50;;;;;;;0.47;0.47;;;;;;;;;;4997599;28;58390;-70
2023/09/30 01:40:17;;;;;;;1.55;0.85;;;;;;;;;;4997374;28;59014;-71
2023/09/30 01:42:43;;;;;;;1.27;0.73;;;;;;;;;;4996151;28;58899;-71
2023/09/30 01:45:08;;;;;;;1.47;0.90;;;;;;;;;;4997576;28;58425;-71
2023/09/30 01:47:33;;;;;;;1.40;0.60;;;;;;;;;;4996146;28;59593;-71
2023/09/30 01:49:59;;;;;;;0.77;0.77;;;;;;;;;;4997028;28;59614;-71
2023/09/30 01:52:24;;;;;;;0.52;0.52;;;;;;;;;;4999899;28;58511;-70
2023/09/30 01:54:49;;;;;;;0.70;0.50;;;;;;;;;;4996411;28;58955;-70
2023/09/30 01:57:14;;;;;;;0.90;0.70;;;;;;;;;;4996877;28;58819;-70
2023/09/30 01:59:39;;;;;;;1.02;0.60;;;;;;;;;;4997364;28;59004;-70
2023/09/30 02:02:05;;;;;;;0.90;0.75;;;;;;;;;;4997349;28;59990;-70
2023/09/30 02:04:30;;;;;;;1.43;0.80;;;;;;;;;;4996830;28;58350;-71
2023/09/30 02:06:55;;;;;;;1.08;0.50;;;;;;;;;;4997552;28;60040;-70
2023/09/30 02:09:21;;;;;;;1.25;0.55;;;;;;;;;;4995127;28;58611;-70
2023/09/30 02:11:46;;;;;;;1.73;1.00;;;;;;;;;;4996863;28;58461;-70
2023/09/30 02:14:11;;;;;;;0.73;0.60;;;;;;;;;;4996879;28;59389;-71
2023/09/30 02:16:37;;;;;;;0.83;0.50;;;;;;;;;;4998512;28;59004;-70
2023/09/30 02:19:02;;;;;;;0.88;0.70;;;;;;;;;;4996586;28;59499;-71
2023/09/30 02:21:28;;;;;;;1.37;1.27;;;;;;;;;;4998598;28;58510;-70
2023/09/30 02:23:54;;;;;;;1.15;0.65;;;;;;;;;;4998094;28;58373;-70
2023/09/30 02:26:20;;;;;;;0.65;0.60;;;;;;;;;;4997937;28;59161;-71
2023/09/30 02:28:45;;;;;;;1.00;0.60;;;;;;;;;;4995115;28;59822;-70
2023/09/30 02:31:10;;;;;;;1.13;0.80;;;;;;;;;;4998509;28;58447;-70
2023/09/30 02:33:37;;;;;;;0.85;0.70;;;;;;;;;;4998395;28;59535;-70
2023/09/30 02:36:05;;;;;;;0.85;0.47;;;;;;;;;;4995626;28;59215;-71
2023/09/30 02:38:30;;;;;;;0.55;0.52;;;;;;;;;;4998422;28;58546;-71
2023/09/30 02:40:56;;;;;;;1.03;0.90;;;;;;;;;;4997224;28;58725;-70
2023/09/30 02:43:21;;;;;;;1.05;0.90;;;;;;;;;;4998446;28;58362;-70
2023/09/30 02:45:46;;;;;;;2.13;0.70;;;;;;;;;;4998654;28;59457;-70
2023/09/30 02:48:11;;;;;;;0.97;0.70;;;;;;;;;;4996523;28;59642;-71
2023/09/30 02:50:36;;;;;;;0.77;0.50;;;;;;;;;;4998392;28;58559;-70
2023/09/30 02:53:02;;;;;;;1.03;0.77;;;;;;;;;;4997028;28;60266;-71
2023/09/30 02:55:27;;;;;;;1.63;1.53;;;;;;;;;;5000910;28;58682;-70
2023/09/30 02:57:52;;;;;;;1.40;1.13;;;;;;;;;;4997102;28;58480;-71
2023/09/30 03:00:23;;;;;;;1.20;0.60;;;;;;;;;;4997928;28;60133;-72
2023/09/30 03:02:52;;;;;;;1.17;0.70;;;;;;;;;;4998233;28;58428;-70
2023/09/30 03:05:17;;;;;;;0.70;0.63;;;;;;;;;;4998183;28;60623;-71
2023/09/30 03:07:43;;;;;;;1.67;1.00;;;;;;;;;;4997443;28;59804;-70
2023/09/30 03:10:08;;;;;;;0.95;0.63;;;;;;;;;;4997053;28;58413;-70
2023/09/30 03:12:34;;;;;;;1.45;0.60;;;;;;;;;;4997634;28;60642;-72
2023/09/30 03:14:59;;;;;;;1.35;0.65;;;;;;;;;;4997968;28;58858;-73
2023/09/30 03:17:25;;;;;;;0.67;0.60;;;;;;;;;;4996003;28;58705;-73
2023/09/30 03:19:51;;;;;;;1.92;0.50;;;;;;;;;;4997965;28;59368;-73
2023/09/30 03:22:16;;;;;;;1.10;0.90;;;;;;;;;;4997837;28;59261;-73
2023/09/30 03:24:41;;;;;;;0.60;0.60;;;;;;;;;;4998515;28;59470;-73
2023/09/30 03:27:07;;;;;;;1.33;0.87;;;;;;;;;;4994923;28;58598;-73
2023/09/30 03:29:32;;;;;;;0.80;0.80;;;;;;;;;;4997333;28;58536;-72
2023/09/30 03:31:57;;;;;;;1.33;0.77;;;;;;;;;;5000051;28;60373;-72
2023/09/30 03:34:22;;;;;;;0.53;0.50;;;;;;;;;;4996692;28;58921;-72
2023/09/30 03:36:47;;;;;;;1.13;0.57;;;;;;;;;;4999213;28;58583;-73
2023/09/30 03:39:15;;;;;;;1.03;0.80;;;;;;;;;;4996546;28;59367;-73
2023/09/30 03:41:40;;;;;;;0.80;0.73;;;;;;;;;;4997581;28;59921;-74
2023/09/30 03:44:06;;;;;;;0.63;0.60;;;;;;;;;;4997521;28;58383;-73
2023/09/30 03:46:31;;;;;;;0.65;0.50;;;;;;;;;;4995405;28;59537;-73
2023/09/30 03:48:56;;;;;;;0.90;0.60;;;;;;;;;;4997266;28;58487;-72
2023/09/30 03:51:24;;;;;;;1.13;0.57;;;;;;;;;;4996402;28;59102;-74
2023/09/30 03:53:49;;;;;;;0.85;0.85;;;;;;;;;;4996938;28;58818;-73
2023/09/30 03:56:15;;;;;;;0.68;0.40;;;;;;;;;;4999680;28;60141;-73
2023/09/30 03:58:41;;;;;;;1.17;0.68;;;;;;;;;;4998117;28;60118;-72
2023/09/30 04:01:07;;;;;;;0.80;0.75;;;;;;;;;;4995751;28;58609;-72
2023/09/30 04:03:33;;;;;;;0.88;0.45;;;;;;;;;;4997343;28;58447;-72
2023/09/30 04:05:58;;;;;;;0.90;0.80;;;;;;;;;;4997423;28;59676;-73
2023/09/30 04:08:23;;;;;;;1.57;1.00;;;;;;;;;;4995309;28;58405;-73
2023/09/30 04:10:49;;;;;;;1.10;1.00;;;;;;;;;;4995011;28;59554;-72
2023/09/30 04:13:14;;;;;;;0.70;0.47;;;;;;;;;;4996288;28;60575;-73
2023/09/30 04:15:39;;;;;;;0.83;0.57;;;;;;;;;;4997626;28;58405;-73
2023/09/30 04:18:05;;;;;;;0.37;0.30;;;;;;;;;;4997993;28;60123;-73
2023/09/30 04:20:30;;;;;;;0.52;0.50;;;;;;;;;;4999977;28;58868;-72
2023/09/30 04:22:57;;;;;;;0.88;0.63;;;;;;;;;;5000047;28;58365;-73
2023/09/30 04:25:24;;;;;;;1.60;0.68;;;;;;;;;;5000363;28;59410;-74
2023/09/30 04:27:49;;;;;;;0.70;0.70;;;;;;;;;;5001653;28;58532;-73
2023/09/30 04:30:15;;;;;;;0.77;0.60;;;;;;;;;;5003405;28;60370;-73
2023/09/30 04:32:40;;;;;;;0.60;0.60;;;;;;;;;;5000881;28;60127;-73
2023/09/30 04:35:05;;;;;;;0.47;0.40;;;;;;;;;;5001866;28;58331;-73
2023/09/30 04:37:31;;;;;;;0.82;0.73;;;;;;;;;;5002918;28;59779;-72
2023/09/30 04:39:58;;;;;;;0.85;0.73;;;;;;;;;;5001092;28;59532;-73
2023/09/30 04:42:25;;;;;;;0.82;0.77;;;;;;;;;;5000501;28;58441;-73
2023/09/30 04:44:50;;;;;;;2.47;1.02;;;;;;;;;;5001762;28;58649;-72
2023/09/30 04:47:15;;;;;;;1.10;0.90;;;;;;;;;;5001329;28;58432;-73
2023/09/30 04:49:40;;;;;;;1.02;0.80;;;;;;;;;;5002010;28;58409;-73
2023/09/30 04:52:07;;;;;;;0.70;0.70;;;;;;;;;;5000715;28;59856;-73
2023/09/30 04:54:35;;;;;;;0.88;0.70;;;;;;;;;;5005470;28;58557;-73
2023/09/30 04:57:00;;;;;;;0.80;0.60;;;;;;;;;;4997241;28;60043;-72
2023/09/30 04:59:25;;;;;;;1.03;0.90;;;;;;;;;;4986665;28;59020;-72
2023/09/30 05:01:50;;;;;;;0.93;0.63;;;;;;;;;;4988946;28;58406;-72
2023/09/30 05:04:16;;;;;;;1.20;0.57;;;;;;;;;;5006050;28;59749;-73
2023/09/30 05:06:41;;;;;;;1.00;0.80;;;;;;;;;;5005143;28;59697;-72
2023/09/30 05:09:07;;;;;;;0.40;0.40;;;;;;;;;;5006049;28;58389;-73
2023/09/30 05:11:32;;;;;;;0.93;0.85;;;;;;;;;;5005569;28;58412;-72
2023/09/30 05:13:57;;;;;;;1.05;0.90;;;;;;;;;;5005156;28;58376;-73
2023/09/30 05:16:22;;;;;;;0.60;0.50;;;;;;;;;;5003838;28;59477;-72
2023/09/30 05:18:48;;;;;;;0.83;0.67;;;;;;;;;;5007574;28;58655;-73
2023/09/30 05:21:13;;;;;;;0.95;0.85;;;;;;;;;;5009284;28;58358;-73
2023/09/30 05:23:38;;;;;;;1.23;0.85;;;;;;;;;;5005557;28;58393;-73
2023/09/30 05:26:03;;;;;;;1.10;0.80;;;;;;;;;;5005243;28;58933;-73
2023/09/30 05:28:28;;;;;;;0.97;0.80;;;;;;;;;;5005314;28;58341;-73
2023/09/30 05:30:54;;;;;;;0.57;0.40;;;;;;;;;;5007906;28;58842;-72
2023/09/30 05:33:19;;;;;;;1.07;0.70;;;;;;;;;;5001776;28;58389;-71
2023/09/30 05:35:45;;;;;;;1.10;0.75;;;;;;;;;;5004257;28;60146;-72
2023/09/30 05:38:10;;;;;;;0.67;0.67;;;;;;;;;;5004035;28;60203;-70
2023/09/30 05:40:35;;;;;;;1.70;0.97;;;;;;;;;;5004447;28;58475;-70
2023/09/30 05:43:00;;;;;;;0.88;0.50;;;;;;;;;;5005007;28;59265;-72
2023/09/30 05:45:26;;;;;;;1.20;0.87;;;;;;;;;;5007135;28;58753;-71
2023/09/30 05:47:52;;;;;;;2.78;0.50;;;;;;;;;;5007259;28;58552;-71
2023/09/30 05:50:23;;;;;;;1.55;0.93;;;;;;;;;;5007312;28;59572;-70
2023/09/30 05:52:48;;;;;;;0.73;0.50;;;;;;;;;;5005640;28;58986;-71
2023/09/30 05:55:14;;;;;;;0.70;0.60;;;;;;;;;;5006419;28;60436;-72
2023/09/30 05:57:40;;;;;;;0.80;0.75;;;;;;;;;;5003796;28;59075;-72
2023/09/30 06:00:28;;;;;;;1.05;0.77;;;;;;;;;;5005370;28;58534;-70
2023/09/30 06:02:51;;;;;;;1.95;1.05;;;;;;;;;;5005057;28;58970;-70
2023/09/30 06:05:18;;;;;;;0.98;0.50;;;;;;;;;;5005704;28;59134;-70
2023/09/30 06:07:45;;;;;;;1.10;0.80;;;;;;;;;;5003875;28;58367;-70
2023/09/30 06:10:10;;;;;;;1.40;0.55;;;;;;;;;;5003500;28;59511;-70
2023/09/30 06:12:35;;;;;;;0.93;0.70;;;;;;;;;;5003542;28;59837;-70
2023/09/30 06:15:01;;;;;;;1.27;0.57;;;;;;;;;;5006794;28;58435;-71
2023/09/30 06:17:26;;;;;;;0.82;0.50;;;;;;;;;;5000239;28;59155;-70
2023/09/30 06:19:51;;;;;;;0.63;0.57;;;;;;;;;;5004769;28;58475;-71
2023/09/30 06:22:17;;;;;;;3.40;1.47;;;;;;;;;;5005232;28;60182;-70
2023/09/30 06:24:42;;;;;;;2.25;0.80;;;;;;;;;;5005208;28;59604;-70
2023/09/30 06:27:07;;;;;;;0.73;0.50;;;;;;;;;;5003174;28;58386;-71
2023/09/30 06:29:33;;;;;;;0.68;0.52;;;;;;;;;;4999645;28;60423;-71
2023/09/30 06:31:58;;;;;;;2.67;0.50;;;;;;;;;;5000240;28;61000;-71
2023/09/30 06:34:23;;;;;;;1.23;0.60;;;;;;;;;;4999678;28;58359;-70
2023/09/30 06:36:49;;;;;;;1.15;0.80;;;;;;;;;;4998780;28;60162;-71
2023/09/30 06:39:14;;;;;;;1.60;0.93;;;;;;;;;;5003731;28;58430;-70
2023/09/30 06:41:39;;;;;;;0.90;0.60;;;;;;;;;;5004195;28;58766;-73
2023/09/30 06:44:05;;;;;;;1.87;0.93;;;;;;;;;;4999515;28;59954;-73
2023/09/30 06:46:30;;;;;;;0.75;0.70;;;;;;;;;;5002234;28;58457;-72
2023/09/30 06:48:55;;;;;;;1.57;0.90;;;;;;;;;;5002464;28;59719;-73
2023/09/30 06:51:21;;;;;;;0.93;0.30;;;;;;;;;;5001681;28;59145;-73
2023/09/30 06:53:46;;;;;;;1.33;1.10;;;;;;;;;;4998816;28;58431;-73
2023/09/30 06:56:12;;;;;;;1.77;0.60;;;;;;;;;;5002061;28;59433;-73
2023/09/30 06:58:37;;;;;;;0.75;0.52;;;;;;;;;;5003042;28;58580;-73
2023/09/30 07:01:03;;;;;;;3.20;0.70;;;;;;;;;;5000183;28;59756;-73
2023/09/30 07:03:28;;;;;;;0.60;0.53;;;;;;;;;;4999675;28;58428;-73
2023/09/30 07:05:54;;;;;;;1.48;0.70;;;;;;;;;;4998661;28;58387;-73
2023/09/30 07:08:21;;;;;;;1.13;0.90;;;;;;;;;;5000344;28;60256;-73
2023/09/30 07:10:46;;;;;;;1.13;0.70;;;;;;;;;;5000810;28;59913;-73
2023/09/30 07:13:12;;;;;;;1.70;0.82;;;;;;;;;;5000561;28;58480;-73
2023/09/30 07:15:37;;;;;;;1.50;0.90;;;;;;;;;;5000701;28;59197;-72
2023/09/30 07:18:02;;;;;;;1.53;0.70;;;;;;;;;;5001277;28;58721;-72
2023/09/30 07:20:27;;;;;;;0.93;0.70;;;;;;;;;;5000769;28;59432;-73
2023/09/30 07:22:53;;;;;;;2.40;0.87;;;;;;;;;;5000138;28;58638;-73
2023/09/30 07:25:18;;;;;;;0.70;0.50;;;;;;;;;;5003040;28;58623;-72
2023/09/30 07:27:44;;;;;;;2.87;0.73;;;;;;;;;;5001667;28;59320;-73
2023/09/30 07:30:11;;;;;;;0.88;0.60;;;;;;;;;;5001888;28;59262;-73
2023/09/30 07:32:37;;;;;;;0.60;0.60;;;;;;;;;;5001721;28;58342;-72
2023/09/30 07:35:02;;;;;;;1.13;0.77;;;;;;;;;;5001760;28;59098;-70
2023/09/30 07:37:27;;;;;;;0.60;0.60;;;;;;;;;;4996864;28;59287;-72
2023/09/30 07:39:52;;;;;;;1.30;0.70;;;;;;;;;;5000713;28;58739;-71
2023/09/30 07:42:17;;;;;;;3.20;0.67;;;;;;;;;;5000526;28;59157;-69
2023/09/30 07:44:43;;;;;;;3.87;0.90;;;;;;;;;;4997880;28;58650;-75
2023/09/30 07:47:11;;;;;;;3.70;0.93;;;;;;;;;;5001280;28;60367;-74
2023/09/30 07:49:37;;;;;;;1.23;0.90;;;;;;;;;;5002125;28;58919;-75
2023/09/30 07:52:03;;;;;;;2.63;0.82;;;;;;;;;;5003518;28;58555;-72
2023/09/30 07:54:28;;;;;;;1.77;0.65;;;;;;;;;;5005148;28;60212;-72
2023/09/30 07:56:55;;;;;;;0.83;0.60;;;;;;;;;;5002829;28;58597;-72
2023/09/30 07:59:20;;;;;;;2.35;0.90;;;;;;;;;;5004664;28;63614;-73
2023/09/30 08:01:47;;;;;;;1.13;0.63;;;;;;;;;;5004435;28;59266;-73
2023/09/30 08:04:13;;;;;;;1.23;1.13;;;;;;;;;;5004875;28;58469;-66
2023/09/30 08:06:38;;;;;;;0.88;0.70;;;;;;;;;;5006280;28;59216;-66
2023/09/30 08:09:03;;;;;;;8.75;0.90;;;;;;;;;;5004614;28;58385;-70
2023/09/30 08:11:30;;;;;;;1.40;0.50;;;;;;;;;;5005474;28;58407;-71
2023/09/30 08:13:56;;;;;;;2.73;0.60;;;;;;;;;;5004428;28;59507;-72
2023/09/30 08:16:21;;;;;;;1.63;0.60;;;;;;;;;;5000461;28;58397;-72
2023/09/30 08:18:46;;;;;;;3.73;0.60;;;;;;;;;;5001779;28;58421;-72
2023/09/30 08:21:11;;;;;;;4.03;0.67;;;;;;;;;;5004263;28;59240;-72
2023/09/30 08:23:36;;;;;;;1.27;0.97;;;;;;;;;;5004219;28;58592;-72
2023/09/30 08:26:03;;;;;;;1.27;0.60;;;;;;;;;;5005803;28;59382;-72
2023/09/30 08:28:28;;;;;;;2.92;0.60;;;;;;;;;;5005740;28;60179;-72
2023/09/30 08:30:58;;;;;;;1.50;0.70;;;;;;;;;;5001415;28;58558;-69
2023/09/30 08:33:24;;;;;;;2.13;0.40;;;;;;;;;;5002382;28;59474;-69
2023/09/30 08:35:50;;;;;;;1.70;0.70;;;;;;;;;;5001799;28;59635;-67
2023/09/30 08:38:15;;;;;;;0.90;0.60;;;;;;;;;;4999860;28;59779;-69
2023/09/30 08:40:40;;;;;;;1.43;0.97;;;;;;;;;;4998942;28;59151;-69
2023/09/30 08:43:09;;;;;;;2.28;1.02;;;;;;;;;;5003396;28;58505;-69
2023/09/30 08:45:39;;;;;;;0.98;0.60;;;;;;;;;;5004087;28;58447;-69
2023/09/30 08:48:05;;;;;;;1.55;0.77;;;;;;;;;;5003367;28;58989;-69
2023/09/30 08:50:31;;;;;;;2.10;0.80;;;;;;;;;;5005660;28;58379;-69
2023/09/30 08:52:56;;;;;;;0.80;0.70;;;;;;;;;;5005721;28;59607;-69
2023/09/30 08:55:21;;;;;;;0.60;0.60;;;;;;;;;;5004824;28;59954;-69
2023/09/30 08:57:48;;;;;;;1.30;0.97;;;;;;;;;;5004435;28;58737;-69
2023/09/30 09:00:13;;;;;;;0.70;0.50;;;;;;;;;;5006632;28;58505;-69
2023/09/30 09:02:39;;;;;;;1.00;0.60;;;;;;;;;;5004260;28;59173;-70
2023/09/30 09:05:04;;;;;;;1.13;0.90;;;;;;;;;;5006691;28;58288;-70
2023/09/30 09:07:30;;;;;;;2.10;1.17;;;;;;;;;;5005168;28;59318;-70
2023/09/30 09:10:08;;;;;;;4.35;1.05;;;;;;;;;;5004422;28;58468;-71
2023/09/30 09:12:35;;;;;;;1.60;0.60;;;;;;;;;;5004435;28;60276;-70
2023/09/30 09:15:00;;;;;;;1.02;0.93;;;;;;;;;;5004012;28;58800;-70
2023/09/30 09:17:39;;;;;;;1.30;0.90;;;;;;;;;;5003318;28;58739;-70
2023/09/30 09:20:05;;;;;;;1.90;0.80;;;;;;;;;;5005887;28;59643;-70
2023/09/30 09:22:40;;;;;;;0.85;0.60;;;;;;;;;;5005952;28;58774;-70
2023/09/30 09:25:05;;;;;;;1.90;0.60;;;;;;;;;;5002917;28;58279;-70
2023/09/30 09:27:33;;;;;;;2.38;0.93;;;;;;;;;;5005199;28;58528;-70
2023/09/30 09:30:13;;;;;;;2.97;1.05;;;;;;;;;;5005546;28;58552;-70
2023/09/30 09:32:38;;;;;;;1.05;0.43;;;;;;;;;;5004846;28;59400;-70
2023/09/30 09:35:03;;;;;;;1.05;0.50;;;;;;;;;;5003357;28;59395;-70
2023/09/30 09:37:31;;;;;;;1.70;0.65;;;;;;;;;;5005163;28;58511;-70
2023/09/30 09:39:57;;;;;;;1.85;0.60;;;;;;;;;;5004308;28;59710;-70
2023/09/30 09:42:26;;;;;;;4.90;0.70;;;;;;;;;;5004927;28;58780;-70
2023/09/30 09:44:56;;;;;;;1.73;0.47;;;;;;;;;;5004729;28;58434;-70
2023/09/30 09:47:22;;;;;;;0.70;0.60;;;;;;;;;;5004439;28;60281;-70
2023/09/30 09:49:48;;;;;;;1.33;0.65;;;;;;;;;;5004633;28;59399;-70
2023/09/30 09:52:15;;;;;;;3.15;0.60;;;;;;;;;;5004398;28;60411;-70
2023/09/30 09:54:41;;;;;;;1.40;0.50;;;;;;;;;;5002386;28;59100;-70
2023/09/30 09:57:09;;;;;;;1.05;0.80;;;;;;;;;;5004881;28;58488;-70
2023/09/30 09:59:35;;;;;;;2.17;0.98;;;;;;;;;;5002970;28;59308;-70
2023/09/30 10:02:01;;;;;;;0.70;0.50;;;;;;;;;;5004548;28;58568;-70
2023/09/30 10:04:27;;;;;;;0.82;0.73;;;;;;;;;;5004640;28;58537;-70
2023/09/30 10:06:53;;;;;;;0.57;0.43;;;;;;;;;;5004151;28;59326;-70
2023/09/30 10:09:18;;;;;;;1.40;1.02;;;;;;;;;;5001503;28;60232;-70
2023/09/30 10:11:44;;;;;;;0.50;0.43;;;;;;;;;;5005831;28;58556;-69
2023/09/30 10:14:29;;;;;;;2.95;0.60;;;;;;;;;;5003734;28;58824;-71
2023/09/30 10:16:55;;;;;;;1.42;0.45;;;;;;;;;;5002996;28;58400;-69
2023/09/30 10:19:24;;;;;;;0.60;0.43;;;;;;;;;;5003541;28;58433;-69
2023/09/30 10:22:08;;;;;;;0.90;0.40;;;;;;;;;;5001709;28;58782;-68
2023/09/30 10:24:33;;;;;;;1.25;0.52;;;;;;;;;;5003885;28;58564;-69
2023/09/30 10:27:17;;;;;;;0.80;0.73;;;;;;;;;;5003857;28;59209;-69
2023/09/30 10:29:42;;;;;;;1.20;1.02;;;;;;;;;;5002999;28;59749;-68
2023/09/30 10:32:08;;;;;;;1.10;0.53;;;;;;;;;;5003325;28;58346;-69
2023/09/30 10:34:33;;;;;;;0.80;0.52;;;;;;;;;;5003582;28;59338;-68
2023/09/30 10:36:58;;;;;;;0.70;0.57;;;;;;;;;;5003193;28;58424;-69
2023/09/30 10:39:42;;;;;;;0.47;0.40;;;;;;;;;;5003506;28;59517;-69
2023/09/30 10:42:09;;;;;;;2.28;0.43;;;;;;;;;;5002728;28;59898;-69
2023/09/30 10:44:35;;;;;;;1.05;0.68;;;;;;;;;;5004248;28;58437;-69
2023/09/30 10:47:20;;;;;;;1.45;1.10;;;;;;;;;;5004665;28;59250;-70
2023/09/30 10:49:46;;;;;;;0.90;0.40;;;;;;;;;;5002344;28;63657;-69
2023/09/30 10:52:20;;;;;;;1.45;0.40;;;;;;;;;;5004185;28;58410;-69
2023/09/30 10:54:46;;;;;;;1.00;0.60;;;;;;;;;;5002128;28;59559;-69
2023/09/30 10:57:12;;;;;;;0.40;0.40;;;;;;;;;;5003285;28;58418;-69
2023/09/30 10:59:37;;;;;;;0.73;0.35;;;;;;;;;;5003442;28;60811;-69
2023/09/30 11:02:02;;;;;;;0.93;0.40;;;;;;;;;;5003064;28;59562;-69
2023/09/30 11:04:28;;;;;;;1.15;0.60;;;;;;;;;;5002915;28;58465;-69
2023/09/30 11:06:54;;;;;;;0.95;0.52;;;;;;;;;;4995945;28;59640;-69
2023/09/30 11:09:21;;;;;;;0.52;0.28;;;;;;;;;;4995362;28;58421;-70
2023/09/30 11:11:50;;;;;;;1.43;0.57;;;;;;;;;;4993001;28;58687;-69
2023/09/30 11:14:18;;;;;;;1.17;0.82;;;;;;;;;;5000742;28;60266;-68
2023/09/30 11:16:43;;;;;;;;;;;;;;;;;;5000984;28;59716;-69
2023/09/30 11:19:09;;;;;;;3.10;0.43;;;;;;;;;;5001230;28;58991;-69
2023/09/30 11:21:34;;;;;;;1.15;0.68;;;;;;;;;;5001690;28;58813;-67
2023/09/30 11:24:00;;;;;;;1.03;0.67;;;;;;;;;;5001856;28;58441;-68
2023/09/30 11:26:31;;;;;;;0.80;0.70;;;;;;;;;;5001835;28;60182;-67
2023/09/30 11:29:04;;;;;;;1.63;1.15;;;;;;;;;;5001955;28;59040;-67
2023/09/30 11:31:33;;;;;;;1.23;0.45;;;;;;;;;;5003033;28;58615;-67
2023/09/30 11:34:03;;;;;;;0.85;0.57;;;;;;;;;;5002317;28;58690;-68
2023/09/30 11:36:28;;;;;;;0.63;0.38;;;;;;;;;;5002861;28;59355;-68
2023/09/30 11:38:53;;;;;;;1.40;0.50;;;;;;;;;;5002689;28;58467;-68
2023/09/30 11:41:19;;;;;;;0.90;0.60;;;;;;;;;;5001347;28;58434;-67
2023/09/30 11:44:01;;;;;;;2.25;0.60;;;;;;;;;;5004484;28;58490;-68
2023/09/30 11:46:27;;;;;;;1.00;0.60;;;;;;;;;;5003349;28;63128;-68
2023/09/30 11:48:59;;;;;;;0.45;0.43;;;;;;;;;;5001538;28;59943;-68
2023/09/30 11:51:26;;;;;;;2.20;0.43;;;;;;;;;;5002217;28;59353;-67
2023/09/30 11:53:51;;;;;;;6.82;1.10;;;;;;;;;;5003332;28;59455;-67
2023/09/30 11:56:16;;;;;;;2.70;1.00;;;;;;;;;;5002257;28;59530;-67
2023/09/30 11:58:42;;;;;;;4.70;0.60;;;;;;;;;;5002953;28;58375;-67
2023/09/30 12:01:07;;;;;;;0.67;0.50;;;;;;;;;;5002134;28;60218;-68
2023/09/30 12:03:36;;;;;;;0.75;0.40;;;;;;;;;;5001615;28;58448;-68
2023/09/30 12:06:01;;;;;;;2.40;0.50;;;;;;;;;;5003182;28;60366;-68
2023/09/30 12:08:27;;;;;;;0.57;0.50;;;;;;;;;;5002598;28;59725;-67
2023/09/30 12:10:52;;;;;;;2.15;0.68;;;;;;;;;;5002145;28;58331;-67
2023/09/30 12:13:17;;;;;;;1.60;0.80;;;;;;;;;;5002895;28;60397;-67
2023/09/30 12:15:42;;;;;;;2.40;1.00;;;;;;;;;;5002258;28;58620;-68
2023/09/30 12:18:09;;;;;;;1.37;0.40;;;;;;;;;;5001294;28;58439;-68
2023/09/30 12:20:34;;;;;;;0.75;0.45;;;;;;;;;;5002424;28;58556;-68
2023/09/30 12:23:00;;;;;;;2.70;1.55;;;;;;;;;;5004827;28;58927;-68
2023/09/30 12:25:25;;;;;;;0.93;0.43;;;;;;;;;;5002147;28;60304;-68
2023/09/30 12:27:50;;;;;;;1.13;0.57;;;;;;;;;;5002126;28;58509;-68
2023/09/30 12:30:16;;;;;;;0.88;0.57;;;;;;;;;;5002804;28;58295;-68
2023/09/30 12:32:42;;;;;;;0.65;0.55;;;;;;;;;;5002358;28;59449;-69
2023/09/30 12:35:07;;;;;;;0.50;0.50;;;;;;;;;;5001109;28;58909;-69
2023/09/30 12:37:32;;;;;;;1.60;0.90;;;;;;;;;;5003945;28;58385;-69
2023/09/30 12:39:58;;;;;;;1.05;0.40;;;;;;;;;;5005047;28;59175;-68
2023/09/30 12:42:23;;;;;;;1.38;0.50;;;;;;;;;;5006476;28;58980;-68
2023/09/30 12:44:48;;;;;;;0.70;0.43;;;;;;;;;;5005790;28;59063;-68
2023/09/30 12:47:13;;;;;;;0.88;0.40;;;;;;;;;;5005640;28;58960;-69
2023/09/30 12:49:39;;;;;;;1.30;0.60;;;;;;;;;;5005937;28;58546;-69
2023/09/30 12:52:04;;;;;;;0.98;0.30;;;;;;;;;;5005961;28;58431;-69
2023/09/30 12:54:29;;;;;;;1.02;0.50;;;;;;;;;;5004143;28;59824;-69
2023/09/30 12:56:55;;;;;;;2.25;0.63;;;;;;;;;;5002499;28;58214;-69
2023/09/30 12:59:24;;;;;;;1.15;0.55;;;;;;;;;;5005197;28;59215;-69
2023/09/30 13:01:50;;;;;;;1.55;0.70;;;;;;;;;;5005738;28;58687;-69
2023/09/30 13:04:15;;;;;;;0.63;0.50;;;;;;;;;;5004914;28;58374;-69
2023/09/30 13:06:40;;;;;;;2.00;0.50;;;;;;;;;;5003671;28;60082;-69
2023/09/30 13:09:08;;;;;;;2.90;0.75;;;;;;;;;;5004132;28;58392;-69
2023/09/30 13:11:33;;;;;;;0.70;0.70;;;;;;;;;;5005229;28;59490;-69
2023/09/30 13:13:58;;;;;;;1.53;0.40;;;;;;;;;;5005225;28;58434;-69
2023/09/30 13:16:23;;;;;;;0.90;0.50;;;;;;;;;;5004797;28;58646;-69
2023/09/30 13:18:49;;;;;;;0.60;0.50;;;;;;;;;;5004538;28;59531;-69
2023/09/30 13:21:15;;;;;;;0.68;0.30;;;;;;;;;;5003704;28;59971;-69
2023/09/30 13:23:42;;;;;;;0.55;0.32;;;;;;;;;;5004376;28;58455;-69
2023/09/30 13:26:07;;;;;;;0.70;0.70;;;;;;;;;;5004293;28;60253;-69
2023/09/30 13:28:32;;;;;;;0.45;0.45;;;;;;;;;;5006245;28;58575;-69
2023/09/30 13:30:57;;;;;;;1.30;0.50;;;;;;;;;;5005195;28;60541;-69
2023/09/30 13:33:22;;;;;;;1.85;0.70;;;;;;;;;;5004118;28;58723;-69
2023/09/30 13:35:48;;;;;;;0.33;0.30;;;;;;;;;;5005746;28;58314;-69
2023/09/30 13:38:13;;;;;;;0.60;0.60;;;;;;;;;;5003854;28;58881;-69
2023/09/30 13:40:39;;;;;;;2.57;1.03;;;;;;;;;;5005195;28;59851;-69
2023/09/30 13:43:04;;;;;;;0.68;0.50;;;;;;;;;;5005196;28;58701;-69
2023/09/30 13:45:30;;;;;;;0.70;0.43;;;;;;;;;;5002808;28;59144;-69
2023/09/30 13:47:55;;;;;;;1.60;0.50;;;;;;;;;;5005065;28;59289;-69
2023/09/30 13:50:20;;;;;;;0.75;0.50;;;;;;;;;;5003901;28;60509;-68
2023/09/30 13:52:45;;;;;;;1.13;0.70;;;;;;;;;;5004593;28;60100;-69
2023/09/30 13:55:11;;;;;;;1.70;0.50;;;;;;;;;;5005943;28;58362;-69
2023/09/30 13:57:36;;;;;;;1.73;0.70;;;;;;;;;;5004771;28;59516;-69
2023/09/30 14:00:03;;;;;;;0.80;0.20;;;;;;;;;;5003330;28;58702;-69
2023/09/30 14:02:28;;;;;;;0.75;0.40;;;;;;;;;;5004180;28;58461;-69
2023/09/30 14:04:53;;;;;;;0.43;0.20;;;;;;;;;;5006091;28;59414;-69
2023/09/30 14:07:19;;;;;;;0.90;0.30;;;;;;;;;;5004121;28;58508;-69
2023/09/30 14:09:44;;;;;;;0.60;0.57;;;;;;;;;;5004352;28;58504;-69
2023/09/30 14:12:09;;;;;;;1.42;0.60;;;;;;;;;;5001859;28;60080;-69
2023/09/30 14:14:35;;;;;;;0.40;0.30;;;;;;;;;;5004618;28;58484;-69
2023/09/30 14:17:07;;;;;;;0.93;0.52;;;;;;;;;;5003766;28;60174;-70
2023/09/30 14:19:32;;;;;;;0.60;0.40;;;;;;;;;;5002923;28;64321;-69
2023/09/30 14:21:58;;;;;;;0.98;0.40;;;;;;;;;;5004748;28;58865;-69
2023/09/30 14:24:23;;;;;;;2.08;0.50;;;;;;;;;;5002938;28;59679;-69
2023/09/30 14:26:48;;;;;;;0.30;0.30;;;;;;;;;;4998718;28;58876;-69
2023/09/30 14:29:13;;;;;;;0.68;0.25;;;;;;;;;;5002969;28;58390;-69
2023/09/30 14:31:39;;;;;;;0.88;0.85;;;;;;;;;;5003239;28;58499;-74
2023/09/30 14:34:05;;;;;;;1.50;0.38;;;;;;;;;;5001268;28;58527;-72
2023/09/30 14:36:32;;;;;;;0.77;0.40;;;;;;;;;;5001862;28;58530;-70